ROL weather

Rancho El Caracol Airfield
Rancho El Caracol, Baja California Sur, Mexico

Public forecast

Using degrees Celsius for public forecast. Weather courtesy of forecast.io.

Closest aviation weather report (METAR) to Rancho El Caracol Airfield

Report is more than 6 hours old.

Closest report is Mulege Airport, 81.3 nm (150.6 km) ESE. Retrieved 2010/10/16 06:00 UTC (9 years ago):

MMMG 160600Z 00000KT 9999 FEW021 26/22 Q1012 A2991 2AC070 2CI300

Closest aviation forecast (TAF) to Rancho El Caracol Airfield

Closest forecast is General José María Yáñez International Airport, 130.6 nm (242.0 km) ENE. Retrieved 2020/02/17 18:13 UTC (3 hours ago):

TAF MMGM 171609Z 1718/1818 29010KT P6SM SCT120 BKN180 BECMG 1722/1723 BKN100 BKN200 FM180400 33006KT P6SM BKN100 BKN200 BECMG 1806/1807 BKN220 FM181800 28008KT P6SM BKN220